Time;durP1;ratioP1;P1;durP2;ratioP2;P2;SDS_P1;SDS_P2;PMS_P1;PMS_P2;Temp;Humidity;BMP_temperature;BMP_pressure;BME280_temperature;BME280_humidity;BME280_pressure;Samples;Min_cycle;Max_cycle;Signal;HPM_P1;HPM_P2
2023/09/07 00:01:52;;;;;;;17.27;7.03;;;;;;;;;;5030916;28;20040;-75
2023/09/07 00:04:19;;;;;;;14.65;6.95;;;;;;;;;;5012722;28;20191;-73
2023/09/07 00:06:45;;;;;;;8.20;4.82;;;;;;;;;;5030936;28;20451;-74
2023/09/07 00:09:13;;;;;;;10.05;4.95;;;;;;;;;;5030526;28;20029;-72
2023/09/07 00:11:39;;;;;;;6.70;5.22;;;;;;;;;;5030924;28;20040;-72
2023/09/07 00:14:05;;;;;;;10.85;6.40;;;;;;;;;;5030428;28;20029;-72
2023/09/07 00:16:35;;;;;;;7.88;6.05;;;;;;;;;;5030857;28;20033;-72
2023/09/07 00:19:04;;;;;;;8.20;5.13;;;;;;;;;;5030668;28;20055;-72
2023/09/07 00:21:30;;;;;;;6.00;4.45;;;;;;;;;;5030534;28;20025;-72
2023/09/07 00:23:57;;;;;;;7.38;4.50;;;;;;;;;;5022389;28;20108;-72
2023/09/07 00:26:22;;;;;;;9.38;4.80;;;;;;;;;;5030588;28;20475;-71
2023/09/07 00:28:48;;;;;;;8.18;6.25;;;;;;;;;;5020747;28;20080;-73
2023/09/07 00:31:14;;;;;;;13.32;6.93;;;;;;;;;;5049200;28;20053;-75
2023/09/07 00:33:40;;;;;;;18.77;8.93;;;;;;;;;;5033857;28;20088;-70
2023/09/07 00:36:06;;;;;;;19.35;8.52;;;;;;;;;;5033580;28;20434;-71
2023/09/07 00:38:33;;;;;;;19.55;9.43;;;;;;;;;;5013497;28;20180;-71
2023/09/07 00:40:58;;;;;;;12.73;6.53;;;;;;;;;;5020539;28;20118;-73
2023/09/07 00:43:24;;;;;;;13.80;6.28;;;;;;;;;;5016845;28;20030;-72
2023/09/07 00:45:50;;;;;;;14.68;5.78;;;;;;;;;;5020140;28;20026;-72
2023/09/07 00:48:17;;;;;;;15.00;5.97;;;;;;;;;;5013640;28;20048;-71
2023/09/07 00:50:43;;;;;;;13.18;7.03;;;;;;;;;;5029257;28;20075;-73
2023/09/07 00:53:10;;;;;;;16.95;7.05;;;;;;;;;;5059670;28;20037;-71
2023/09/07 00:55:37;;;;;;;15.68;6.25;;;;;;;;;;5039331;28;20247;-71
2023/09/07 00:58:06;;;;;;;13.45;6.53;;;;;;;;;;5014486;28;20076;-71
2023/09/07 01:00:34;;;;;;;10.07;3.85;;;;;;;;;;5014247;28;20092;-73
2023/09/07 01:03:01;;;;;;;12.15;3.97;;;;;;;;;;5016061;28;20037;-72
2023/09/07 01:05:51;;;;;;;14.50;4.93;;;;;;;;;;5030854;28;20228;-73
2023/09/07 01:08:44;;;;;;;12.80;3.45;;;;;;;;;;5062829;28;20179;-71
2023/09/07 01:11:14;;;;;;;8.73;3.78;;;;;;;;;;5016951;28;20495;-72
2023/09/07 01:13:42;;;;;;;12.38;3.20;;;;;;;;;;5012579;28;20065;-71
2023/09/07 01:16:10;;;;;;;9.38;3.35;;;;;;;;;;5029430;28;20484;-71
2023/09/07 01:18:37;;;;;;;12.00;3.35;;;;;;;;;;5039090;28;20175;-71
2023/09/07 01:21:10;;;;;;;10.88;3.25;;;;;;;;;;5032538;28;20028;-71
2023/09/07 01:23:38;;;;;;;6.00;2.95;;;;;;;;;;5033161;28;20029;-72
2023/09/07 01:26:06;;;;;;;9.25;3.75;;;;;;;;;;5030619;28;20038;-71
2023/09/07 01:28:34;;;;;;;11.57;4.35;;;;;;;;;;5018681;28;20038;-71
2023/09/07 01:31:01;;;;;;;8.70;4.60;;;;;;;;;;5030482;28;20030;-71
2023/09/07 01:33:27;;;;;;;10.82;4.10;;;;;;;;;;5032565;28;20044;-71
2023/09/07 01:35:53;;;;;;;10.00;4.45;;;;;;;;;;5033384;28;20029;-71
2023/09/07 01:38:19;;;;;;;9.98;4.55;;;;;;;;;;5065394;28;20034;-73
2023/09/07 01:40:45;;;;;;;10.60;4.60;;;;;;;;;;5065394;28;20025;-72
2023/09/07 01:43:12;;;;;;;12.88;5.53;;;;;;;;;;5015612;28;20526;-71
2023/09/07 01:45:37;;;;;;;9.75;5.22;;;;;;;;;;5020878;28;20037;-71
2023/09/07 01:48:09;;;;;;;8.70;4.05;;;;;;;;;;5040915;28;20069;-73
2023/09/07 01:50:36;;;;;;;9.35;4.20;;;;;;;;;;5014738;28;20040;-74
2023/09/07 01:53:04;;;;;;;10.32;4.00;;;;;;;;;;5026892;28;20427;-72
2023/09/07 01:55:31;;;;;;;7.80;3.45;;;;;;;;;;5015978;28;20057;-73
2023/09/07 01:57:58;;;;;;;7.63;3.20;;;;;;;;;;5027235;28;20032;-72
2023/09/07 02:00:25;;;;;;;4.85;2.58;;;;;;;;;;5032326;28;20445;-72
2023/09/07 02:02:51;;;;;;;8.38;3.15;;;;;;;;;;5024303;28;20103;-72
2023/09/07 02:05:17;;;;;;;6.63;2.88;;;;;;;;;;5017870;28;20037;-72
2023/09/07 02:07:43;;;;;;;6.32;3.13;;;;;;;;;;5020451;28;20041;-72
2023/09/07 02:10:10;;;;;;;5.95;2.90;;;;;;;;;;5012404;28;20499;-72
2023/09/07 02:12:36;;;;;;;8.38;2.90;;;;;;;;;;5028684;28;20033;-72
2023/09/07 02:15:04;;;;;;;4.70;3.08;;;;;;;;;;5045092;28;20383;-72
2023/09/07 02:17:30;;;;;;;6.03;2.78;;;;;;;;;;5024653;28;20049;-72
2023/09/07 02:19:56;;;;;;;6.18;2.72;;;;;;;;;;5018726;28;20433;-72
2023/09/07 02:22:22;;;;;;;4.63;2.95;;;;;;;;;;5020270;28;20033;-72
2023/09/07 02:24:48;;;;;;;5.97;3.28;;;;;;;;;;5037898;28;20052;-72
2023/09/07 02:27:14;;;;;;;5.35;3.42;;;;;;;;;;5023167;28;20487;-73
2023/09/07 02:29:42;;;;;;;7.35;3.00;;;;;;;;;;5021409;28;20467;-71
2023/09/07 02:32:09;;;;;;;6.55;3.58;;;;;;;;;;5015640;28;20523;-72
2023/09/07 02:34:36;;;;;;;7.10;3.80;;;;;;;;;;5043628;28;20022;-70
2023/09/07 02:37:03;;;;;;;4.80;3.15;;;;;;;;;;5037221;28;20043;-72
2023/09/07 02:39:29;;;;;;;5.28;2.35;;;;;;;;;;5019503;28;20064;-75
2023/09/07 02:41:55;;;;;;;4.88;2.20;;;;;;;;;;5011289;28;20446;-72
2023/09/07 02:44:21;;;;;;;3.10;1.80;;;;;;;;;;5022267;28;20030;-72
2023/09/07 02:46:47;;;;;;;2.92;2.00;;;;;;;;;;5033759;28;20531;-72
2023/09/07 02:49:14;;;;;;;3.50;2.20;;;;;;;;;;5035585;28;20038;-72
2023/09/07 02:51:40;;;;;;;4.63;2.08;;;;;;;;;;5023839;28;20021;-72
2023/09/07 02:54:06;;;;;;;3.22;2.10;;;;;;;;;;5027561;28;20537;-71
2023/09/07 02:56:32;;;;;;;3.47;1.83;;;;;;;;;;5037742;28;20087;-72
2023/09/07 02:58:59;;;;;;;4.10;1.60;;;;;;;;;;5024248;28;20026;-72
2023/09/07 03:01:25;;;;;;;4.28;1.80;;;;;;;;;;5048514;28;20029;-71
2023/09/07 03:03:51;;;;;;;2.92;1.65;;;;;;;;;;5021499;28;20071;-72
2023/09/07 03:06:18;;;;;;;3.95;1.95;;;;;;;;;;5019318;28;20038;-72
2023/09/07 03:08:47;;;;;;;5.05;2.30;;;;;;;;;;5018390;28;20088;-71
2023/09/07 03:11:14;;;;;;;4.53;2.20;;;;;;;;;;5042464;28;20518;-71
2023/09/07 03:13:42;;;;;;;4.40;2.50;;;;;;;;;;5019746;28;20395;-72
2023/09/07 03:16:08;;;;;;;4.65;2.50;;;;;;;;;;5023011;28;20113;-72
2023/09/07 03:18:34;;;;;;;3.40;2.47;;;;;;;;;;5019729;28;20033;-72
2023/09/07 03:21:04;;;;;;;3.90;2.58;;;;;;;;;;5055579;28;20025;-72
2023/09/07 03:23:30;;;;;;;5.95;2.85;;;;;;;;;;5046333;28;20022;-72
2023/09/07 03:25:58;;;;;;;6.60;3.00;;;;;;;;;;5012285;28;20040;-72
2023/09/07 03:28:25;;;;;;;3.88;3.10;;;;;;;;;;5046665;28;20048;-72
2023/09/07 03:30:52;;;;;;;6.25;3.42;;;;;;;;;;5025607;28;20029;-72
2023/09/07 03:33:18;;;;;;;4.90;3.15;;;;;;;;;;5025920;28;20109;-72
2023/09/07 03:35:44;;;;;;;4.53;3.70;;;;;;;;;;5009854;28;20399;-72
2023/09/07 03:38:10;;;;;;;4.43;3.00;;;;;;;;;;5028848;28;20040;-72
2023/09/07 03:40:36;;;;;;;5.38;3.42;;;;;;;;;;5045938;28;20037;-72
2023/09/07 03:43:02;;;;;;;5.57;3.50;;;;;;;;;;5038014;28;20039;-72
2023/09/07 03:45:28;;;;;;;3.90;2.88;;;;;;;;;;5045513;28;20097;-72
2023/09/07 03:47:54;;;;;;;4.57;3.30;;;;;;;;;;5030667;28;20039;-72
2023/09/07 03:50:20;;;;;;;4.20;2.80;;;;;;;;;;5029404;28;20040;-72
2023/09/07 03:52:46;;;;;;;3.83;2.47;;;;;;;;;;5029728;28;20029;-72
2023/09/07 03:55:14;;;;;;;4.85;3.05;;;;;;;;;;5029701;28;20271;-72
2023/09/07 03:57:40;;;;;;;4.38;2.75;;;;;;;;;;5028679;28;20451;-72
2023/09/07 04:00:08;;;;;;;3.45;2.67;;;;;;;;;;5036856;28;20036;-72
2023/09/07 04:02:40;;;;;;;5.28;2.70;;;;;;;;;;5030232;28;20483;-72
2023/09/07 04:05:10;;;;;;;5.55;2.95;;;;;;;;;;5026222;28;20099;-72
2023/09/07 04:07:37;;;;;;;6.28;3.42;;;;;;;;;;5018160;28;20455;-71
2023/09/07 04:10:05;;;;;;;5.30;3.33;;;;;;;;;;5030095;28;20075;-71
2023/09/07 04:12:31;;;;;;;5.32;3.25;;;;;;;;;;5040160;28;20511;-71
2023/09/07 04:14:57;;;;;;;5.03;3.45;;;;;;;;;;5033186;28;20021;-71
2023/09/07 04:17:23;;;;;;;7.05;3.80;;;;;;;;;;5033095;28;20056;-72
2023/09/07 04:19:49;;;;;;;5.07;4.05;;;;;;;;;;5033157;28;20499;-72
2023/09/07 04:22:15;;;;;;;5.57;3.33;;;;;;;;;;5034443;28;20412;-72
2023/09/07 04:24:40;;;;;;;5.38;3.70;;;;;;;;;;5034633;28;20131;-72
2023/09/07 04:27:08;;;;;;;5.30;3.47;;;;;;;;;;5033532;28;20167;-73
2023/09/07 04:29:34;;;;;;;6.10;3.65;;;;;;;;;;5033211;28;20115;-72
2023/09/07 04:32:00;;;;;;;4.82;3.47;;;;;;;;;;5032547;28;20127;-72
2023/09/07 04:34:26;;;;;;;4.60;3.40;;;;;;;;;;5034386;28;20423;-71
2023/09/07 04:36:53;;;;;;;5.93;3.67;;;;;;;;;;5033065;28;20044;-73
2023/09/07 04:39:20;;;;;;;8.48;3.50;;;;;;;;;;5033094;28;20026;-72
2023/09/07 04:41:46;;;;;;;5.88;3.30;;;;;;;;;;5032491;28;20029;-72
2023/09/07 04:44:12;;;;;;;4.00;3.05;;;;;;;;;;5032442;28;20535;-72
2023/09/07 04:46:38;;;;;;;4.28;3.13;;;;;;;;;;5032391;28;20033;-72
2023/09/07 04:49:04;;;;;;;5.55;3.70;;;;;;;;;;5032553;28;20079;-72
2023/09/07 04:51:30;;;;;;;6.25;3.50;;;;;;;;;;5032541;28;20120;-71
2023/09/07 04:53:56;;;;;;;5.47;3.50;;;;;;;;;;5032095;28;20566;-72
2023/09/07 04:56:22;;;;;;;5.90;3.78;;;;;;;;;;5033918;28;20394;-72
2023/09/07 04:58:47;;;;;;;4.70;3.22;;;;;;;;;;5033841;28;20033;-72
2023/09/07 05:01:15;;;;;;;4.95;3.28;;;;;;;;;;5032649;28;20037;-73
2023/09/07 05:03:42;;;;;;;6.03;3.40;;;;;;;;;;5015875;28;20017;-73
2023/09/07 05:06:11;;;;;;;4.85;3.00;;;;;;;;;;5033466;28;20037;-73
2023/09/07 05:08:37;;;;;;;4.57;2.80;;;;;;;;;;5032185;28;20467;-72
2023/09/07 05:11:03;;;;;;;5.45;2.83;;;;;;;;;;5032187;28;20061;-72
2023/09/07 05:13:30;;;;;;;3.40;2.55;;;;;;;;;;5032018;28;20056;-71
2023/09/07 05:16:00;;;;;;;3.70;2.72;;;;;;;;;;5031886;28;20091;-72
2023/09/07 05:18:26;;;;;;;4.22;2.85;;;;;;;;;;5031900;28;20487;-72
2023/09/07 05:20:52;;;;;;;4.72;2.75;;;;;;;;;;5030528;28;20068;-72
2023/09/07 05:23:20;;;;;;;6.38;2.38;;;;;;;;;;5032073;28;20040;-71
2023/09/07 05:25:50;;;;;;;4.50;2.30;;;;;;;;;;5031928;28;20033;-73
2023/09/07 05:28:16;;;;;;;2.65;2.08;;;;;;;;;;5031978;28;20068;-73
2023/09/07 05:30:43;;;;;;;4.30;2.38;;;;;;;;;;5031221;28;20104;-73
2023/09/07 05:33:10;;;;;;;4.50;2.53;;;;;;;;;;5030383;28;20370;-75
2023/09/07 05:35:37;;;;;;;3.85;2.15;;;;;;;;;;5031144;28;20562;-75
2023/09/07 05:38:05;;;;;;;6.57;3.42;;;;;;;;;;5029085;28;20506;-74
2023/09/07 05:40:39;;;;;;;4.47;2.50;;;;;;;;;;5031324;28;20034;-74
2023/09/07 05:43:05;;;;;;;6.72;2.80;;;;;;;;;;5030763;28;20510;-76
2023/09/07 05:45:34;;;;;;;7.38;3.90;;;;;;;;;;5031484;28;20621;-75
2023/09/07 05:48:00;;;;;;;6.63;3.58;;;;;;;;;;5013940;28;20075;-76
2023/09/07 05:50:26;;;;;;;6.63;3.50;;;;;;;;;;5031626;28;20110;-75
2023/09/07 05:52:53;;;;;;;5.47;3.20;;;;;;;;;;5032330;28;20056;-77
2023/09/07 05:55:19;;;;;;;4.88;3.42;;;;;;;;;;5031270;28;20029;-75
2023/09/07 05:57:46;;;;;;;5.90;4.43;;;;;;;;;;5030815;28;20037;-75
2023/09/07 06:00:13;;;;;;;7.18;3.80;;;;;;;;;;5038732;28;20554;-76
2023/09/07 06:02:39;;;;;;;7.22;3.95;;;;;;;;;;5033013;28;20395;-75
2023/09/07 06:05:07;;;;;;;14.88;4.82;;;;;;;;;;5029979;28;20439;-76
2023/09/07 06:07:34;;;;;;;8.45;5.22;;;;;;;;;;5014201;28;20503;-76
2023/09/07 06:10:00;;;;;;;6.97;3.97;;;;;;;;;;5029037;28;20122;-76
2023/09/07 06:12:26;;;;;;;8.73;4.03;;;;;;;;;;5052351;28;20079;-75
2023/09/07 06:14:52;;;;;;;5.75;4.22;;;;;;;;;;5022702;28;20014;-75
2023/09/07 06:17:18;;;;;;;10.07;4.10;;;;;;;;;;5021350;28;20030;-75
2023/09/07 06:19:46;;;;;;;12.13;4.65;;;;;;;;;;5021915;28;20372;-75
2023/09/07 06:22:15;;;;;;;10.20;5.10;;;;;;;;;;5026098;28;20042;-79
2023/09/07 06:24:41;;;;;;;12.85;4.03;;;;;;;;;;5009167;28;20041;-76
2023/09/07 06:27:07;;;;;;;7.07;4.32;;;;;;;;;;5027236;28;20136;-75
2023/09/07 06:29:33;;;;;;;6.20;4.20;;;;;;;;;;5010342;28;20147;-73
2023/09/07 06:31:59;;;;;;;6.70;4.55;;;;;;;;;;5026270;28;20037;-75
2023/09/07 06:34:26;;;;;;;5.90;4.20;;;;;;;;;;5026560;28;20095;-75
2023/09/07 06:36:52;;;;;;;7.22;4.13;;;;;;;;;;5009904;28;20116;-74
2023/09/07 06:39:19;;;;;;;9.52;4.38;;;;;;;;;;5026232;28;20292;-75
2023/09/07 06:41:47;;;;;;;7.68;3.90;;;;;;;;;;5032360;28;20395;-73
2023/09/07 06:44:13;;;;;;;7.45;4.43;;;;;;;;;;5029563;28;20108;-73
2023/09/07 06:46:40;;;;;;;6.57;3.92;;;;;;;;;;5028415;28;20069;-74
2023/09/07 06:49:07;;;;;;;7.35;4.40;;;;;;;;;;5021836;28;84030;-72
2023/09/07 06:51:34;;;;;;;12.02;4.93;;;;;;;;;;5029297;28;20052;-76
2023/09/07 06:54:00;;;;;;;9.60;4.78;;;;;;;;;;5029744;28;20026;-73
2023/09/07 06:56:27;;;;;;;11.27;4.68;;;;;;;;;;5029669;28;20045;-74
2023/09/07 06:58:56;;;;;;;9.18;3.85;;;;;;;;;;5030077;28;20037;-74
2023/09/07 07:01:23;;;;;;;8.63;4.47;;;;;;;;;;5029957;28;20037;-72
2023/09/07 07:03:50;;;;;;;6.60;4.05;;;;;;;;;;5028266;28;20022;-74
2023/09/07 07:06:17;;;;;;;6.65;4.10;;;;;;;;;;5028982;28;20046;-73
2023/09/07 07:08:43;;;;;;;7.50;3.72;;;;;;;;;;5012924;28;20029;-74
2023/09/07 07:11:10;;;;;;;8.32;4.50;;;;;;;;;;5029045;28;20255;-73
2023/09/07 07:13:36;;;;;;;6.30;3.85;;;;;;;;;;5027763;28;20111;-74
2023/09/07 07:16:04;;;;;;;12.05;4.10;;;;;;;;;;5028973;28;20029;-74
2023/09/07 07:18:31;;;;;;;10.40;4.15;;;;;;;;;;5029033;28;20032;-74
2023/09/07 07:20:58;;;;;;;6.68;4.32;;;;;;;;;;5028917;28;20045;-74
2023/09/07 07:23:23;;;;;;;9.60;5.70;;;;;;;;;;5028921;28;20111;-74
2023/09/07 07:25:51;;;;;;;11.82;5.20;;;;;;;;;;5029085;28;20125;-73
2023/09/07 07:28:16;;;;;;;10.70;5.75;;;;;;;;;;5029449;28;20049;-73
2023/09/07 07:30:44;;;;;;;7.45;5.30;;;;;;;;;;5030781;28;20088;-74
2023/09/07 07:33:11;;;;;;;9.00;5.32;;;;;;;;;;5012860;28;20057;-74
2023/09/07 07:35:38;;;;;;;9.80;5.38;;;;;;;;;;5029189;28;20038;-73
2023/09/07 07:38:07;;;;;;;8.57;4.75;;;;;;;;;;5029539;28;20060;-74
2023/09/07 07:40:35;;;;;;;8.15;5.15;;;;;;;;;;5013417;28;20029;-74
2023/09/07 07:43:02;;;;;;;9.15;5.28;;;;;;;;;;5029199;28;20055;-72
2023/09/07 07:45:29;;;;;;;11.93;7.05;;;;;;;;;;5029256;28;20046;-74
2023/09/07 07:47:56;;;;;;;16.60;9.52;;;;;;;;;;5032711;28;20040;-75
2023/09/07 07:50:22;;;;;;;11.23;6.32;;;;;;;;;;5033364;28;20501;-73
2023/09/07 07:52:48;;;;;;;11.60;6.03;;;;;;;;;;5032819;28;20117;-74
2023/09/07 07:55:15;;;;;;;12.05;6.60;;;;;;;;;;5036088;28;20125;-74
2023/09/07 07:57:41;;;;;;;11.10;6.35;;;;;;;;;;5033346;28;20033;-72
2023/09/07 08:00:11;;;;;;;11.13;6.43;;;;;;;;;;5033858;28;20486;-73
2023/09/07 08:02:49;;;;;;;13.23;7.40;;;;;;;;;;5033153;28;20068;-72
2023/09/07 08:05:17;;;;;;;18.40;7.45;;;;;;;;;;5033259;28;20056;-73
2023/09/07 08:07:43;;;;;;;11.50;6.90;;;;;;;;;;5016863;28;20036;-74
2023/09/07 08:10:09;;;;;;;12.68;6.80;;;;;;;;;;5032810;28;20120;-73
2023/09/07 08:12:35;;;;;;;10.73;6.80;;;;;;;;;;5032522;28;20056;-76
2023/09/07 08:15:01;;;;;;;9.57;7.35;;;;;;;;;;5034062;28;20476;-73
2023/09/07 08:17:28;;;;;;;9.90;6.57;;;;;;;;;;5032893;28;20051;-72
2023/09/07 08:19:56;;;;;;;13.60;7.18;;;;;;;;;;5032723;28;20487;-73
2023/09/07 08:22:24;;;;;;;17.92;8.63;;;;;;;;;;5032650;28;20125;-74
2023/09/07 08:24:52;;;;;;;21.55;13.90;;;;;;;;;;5032903;28;20120;-74
2023/09/07 08:27:18;;;;;;;13.65;8.40;;;;;;;;;;5032133;28;20033;-73
2023/09/07 08:29:51;;;;;;;12.98;7.53;;;;;;;;;;5032640;28;20079;-74
2023/09/07 08:32:17;;;;;;;10.93;6.55;;;;;;;;;;5033777;28;20025;-74
2023/09/07 08:34:43;;;;;;;17.05;7.97;;;;;;;;;;5033622;28;20110;-73
2023/09/07 08:37:09;;;;;;;13.57;8.18;;;;;;;;;;5033555;28;20127;-73
2023/09/07 08:39:44;;;;;;;12.15;8.30;;;;;;;;;;5033500;28;20030;-73
2023/09/07 08:42:10;;;;;;;16.80;8.65;;;;;;;;;;5033393;28;20041;-74
2023/09/07 08:44:37;;;;;;;12.32;7.25;;;;;;;;;;5033618;28;20088;-73
2023/09/07 08:47:05;;;;;;;11.00;7.22;;;;;;;;;;5033419;28;20061;-75
2023/09/07 08:49:32;;;;;;;11.98;6.82;;;;;;;;;;5031905;28;20360;-73
2023/09/07 08:52:00;;;;;;;12.75;7.22;;;;;;;;;;5033614;28;20116;-74
2023/09/07 08:54:26;;;;;;;12.18;7.00;;;;;;;;;;5031870;28;20112;-74
2023/09/07 08:56:52;;;;;;;10.55;7.35;;;;;;;;;;5033659;28;20118;-75
2023/09/07 08:59:18;;;;;;;14.55;7.78;;;;;;;;;;5033063;28;20481;-74
2023/09/07 09:01:44;;;;;;;15.60;7.70;;;;;;;;;;5034272;28;20037;-73
2023/09/07 09:04:10;;;;;;;12.85;8.00;;;;;;;;;;5032925;28;20029;-74
2023/09/07 09:06:37;;;;;;;16.65;8.88;;;;;;;;;;5032949;28;20061;-76
2023/09/07 09:09:06;;;;;;;14.13;7.88;;;;;;;;;;5031538;28;20044;-75
2023/09/07 09:11:32;;;;;;;15.35;8.27;;;;;;;;;;5033057;28;20057;-74
2023/09/07 09:13:58;;;;;;;12.50;8.48;;;;;;;;;;5032234;28;20068;-73
2023/09/07 09:16:25;;;;;;;11.43;6.72;;;;;;;;;;5031706;28;20045;-74
2023/09/07 09:18:53;;;;;;;10.90;6.47;;;;;;;;;;5033345;28;20040;-75
2023/09/07 09:21:23;;;;;;;9.93;6.22;;;;;;;;;;5033220;28;20227;-74
2023/09/07 09:23:51;;;;;;;13.52;6.60;;;;;;;;;;5032797;28;20044;-74
2023/09/07 09:26:17;;;;;;;13.50;6.75;;;;;;;;;;5031829;28;20363;-74
2023/09/07 09:28:45;;;;;;;9.55;5.75;;;;;;;;;;5033062;28;20033;-74
2023/09/07 09:31:12;;;;;;;11.40;6.97;;;;;;;;;;5032747;28;20045;-74
2023/09/07 09:33:40;;;;;;;9.20;6.07;;;;;;;;;;5032741;28;20048;-73
2023/09/07 09:36:07;;;;;;;15.77;7.63;;;;;;;;;;5031254;28;20148;-73
2023/09/07 09:38:34;;;;;;;10.25;6.47;;;;;;;;;;5032734;28;20133;-73
2023/09/07 09:41:00;;;;;;;10.13;6.28;;;;;;;;;;5032670;28;20025;-73
2023/09/07 09:43:26;;;;;;;11.50;6.15;;;;;;;;;;5031499;28;20128;-74
2023/09/07 09:45:54;;;;;;;10.70;6.88;;;;;;;;;;5032268;28;20103;-73
2023/09/07 09:48:20;;;;;;;12.48;7.32;;;;;;;;;;5032444;28;20041;-73
2023/09/07 09:50:48;;;;;;;11.75;7.05;;;;;;;;;;5032174;28;20041;-73
2023/09/07 09:53:22;;;;;;;10.02;7.50;;;;;;;;;;5032032;28;20071;-74
2023/09/07 09:55:50;;;;;;;12.93;7.60;;;;;;;;;;5032421;28;20108;-75
2023/09/07 09:58:17;;;;;;;10.98;7.10;;;;;;;;;;5032632;28;20048;-74
2023/09/07 10:00:50;;;;;;;10.05;7.50;;;;;;;;;;5032392;28;20038;-74
2023/09/07 10:03:26;;;;;;;10.60;6.85;;;;;;;;;;5031802;28;20336;-74
2023/09/07 10:05:52;;;;;;;9.43;6.57;;;;;;;;;;5032611;28;20471;-74
2023/09/07 10:08:22;;;;;;;15.18;7.82;;;;;;;;;;5031048;28;20044;-75
2023/09/07 10:10:53;;;;;;;13.23;8.43;;;;;;;;;;5032873;28;20498;-72
2023/09/07 10:13:30;;;;;;;12.35;7.68;;;;;;;;;;5032426;28;20037;-73
2023/09/07 10:16:04;;;;;;;13.13;8.70;;;;;;;;;;5033899;28;20044;-73
2023/09/07 10:18:37;;;;;;;12.25;8.80;;;;;;;;;;5033424;28;20037;-74
2023/09/07 10:21:05;;;;;;;12.88;8.13;;;;;;;;;;5031739;28;20533;-74
2023/09/07 10:23:45;;;;;;;14.68;9.13;;;;;;;;;;5032281;28;20070;-74
2023/09/07 10:26:20;;;;;;;;;;;;;;;;;;5032285;28;20052;-73
2023/09/07 10:28:47;;;;;;;15.18;8.23;;;;;;;;;;5034883;28;19913;-74
2023/09/07 10:31:16;;;;;;;13.40;7.93;;;;;;;;;;5032847;28;20045;-74
2023/09/07 10:33:42;;;;;;;12.38;7.85;;;;;;;;;;5032633;28;20040;-74
2023/09/07 10:36:08;;;;;;;10.80;7.57;;;;;;;;;;5032259;28;20022;-75
2023/09/07 10:38:36;;;;;;;11.20;7.20;;;;;;;;;;5031464;28;20115;-75
2023/09/07 10:41:04;;;;;;;13.30;7.68;;;;;;;;;;5032261;28;20395;-75
2023/09/07 10:43:32;;;;;;;13.45;7.82;;;;;;;;;;5031779;28;20536;-73
2023/09/07 10:46:00;;;;;;;11.43;7.10;;;;;;;;;;5031771;28;20043;-74
2023/09/07 10:48:29;;;;;;;9.77;6.72;;;;;;;;;;5032278;28;20033;-74
2023/09/07 10:50:56;;;;;;;11.73;6.28;;;;;;;;;;5031420;28;20018;-72
2023/09/07 10:53:28;;;;;;;10.43;6.57;;;;;;;;;;5031225;28;20038;-74
2023/09/07 10:55:58;;;;;;;10.77;6.22;;;;;;;;;;5032013;28;20029;-73
2023/09/07 10:58:31;;;;;;;11.30;6.25;;;;;;;;;;5030609;28;20029;-74
2023/09/07 11:00:58;;;;;;;10.98;6.32;;;;;;;;;;5030360;28;20037;-74
2023/09/07 11:03:27;;;;;;;9.88;7.00;;;;;;;;;;5028743;28;20028;-71
2023/09/07 11:05:57;;;;;;;12.43;6.82;;;;;;;;;;5030525;28;20044;-72
2023/09/07 11:08:23;;;;;;;10.40;6.97;;;;;;;;;;5031579;28;20033;-74
2023/09/07 11:10:52;;;;;;;11.50;7.22;;;;;;;;;;5031422;28;20033;-73
2023/09/07 11:13:18;;;;;;;12.77;8.27;;;;;;;;;;5030884;28;20072;-73
2023/09/07 11:15:44;;;;;;;10.60;7.30;;;;;;;;;;5031819;28;20049;-73
2023/09/07 11:18:10;;;;;;;10.63;7.07;;;;;;;;;;5031256;28;20088;-73
2023/09/07 11:20:36;;;;;;;13.00;7.93;;;;;;;;;;5034423;28;20030;-72
2023/09/07 11:23:05;;;;;;;9.45;6.57;;;;;;;;;;5041900;28;20030;-74
2023/09/07 11:25:36;;;;;;;11.60;7.20;;;;;;;;;;5037647;28;20037;-72
2023/09/07 11:28:06;;;;;;;11.32;7.13;;;;;;;;;;5040231;28;20033;-72
2023/09/07 11:30:35;;;;;;;13.65;7.55;;;;;;;;;;5038486;28;20117;-73
2023/09/07 11:33:06;;;;;;;12.57;7.88;;;;;;;;;;5036838;28;20030;-73
2023/09/07 11:35:34;;;;;;;13.00;7.75;;;;;;;;;;5038282;28;20041;-72
2023/09/07 11:38:03;;;;;;;11.48;7.38;;;;;;;;;;5040551;28;20025;-72
2023/09/07 11:40:30;;;;;;;12.88;7.85;;;;;;;;;;5036668;28;20033;-74
2023/09/07 11:42:56;;;;;;;11.35;7.53;;;;;;;;;;5037106;28;20026;-74
2023/09/07 11:45:22;;;;;;;11.57;7.50;;;;;;;;;;5037414;28;20052;-74
2023/09/07 11:47:48;;;;;;;17.17;8.07;;;;;;;;;;5038528;28;20087;-73
2023/09/07 11:50:17;;;;;;;12.68;7.13;;;;;;;;;;5037892;28;20044;-74
2023/09/07 11:52:43;;;;;;;10.25;7.25;;;;;;;;;;5037873;28;20194;-74
2023/09/07 11:55:10;;;;;;;9.48;6.80;;;;;;;;;;5037997;28;20037;-72
2023/09/07 11:57:40;;;;;;;9.57;6.03;;;;;;;;;;5038711;28;20116;-73
2023/09/07 12:00:09;;;;;;;9.80;6.88;;;;;;;;;;5037513;28;20075;-73
2023/09/07 12:02:41;;;;;;;9.27;6.38;;;;;;;;;;5037729;28;20032;-74
2023/09/07 12:05:09;;;;;;;11.68;7.18;;;;;;;;;;5036910;28;20045;-73
2023/09/07 12:07:36;;;;;;;9.07;6.65;;;;;;;;;;5036825;28;20030;-74
2023/09/07 12:10:03;;;;;;;10.02;6.57;;;;;;;;;;5037657;28;20029;-73
2023/09/07 12:12:29;;;;;;;8.00;5.90;;;;;;;;;;5037986;28;20106;-74
2023/09/07 12:14:56;;;;;;;12.27;6.95;;;;;;;;;;5037270;28;20491;-73
2023/09/07 12:17:24;;;;;;;10.80;6.60;;;;;;;;;;5037550;28;20029;-73
2023/09/07 12:19:50;;;;;;;10.73;6.93;;;;;;;;;;5036503;28;20033;-73
2023/09/07 12:22:16;;;;;;;10.05;7.05;;;;;;;;;;5037639;28;20029;-74
2023/09/07 12:24:43;;;;;;;11.00;7.07;;;;;;;;;;5036574;28;20472;-74
2023/09/07 12:27:09;;;;;;;12.88;7.47;;;;;;;;;;5037513;28;20029;-74
2023/09/07 12:29:35;;;;;;;11.55;7.30;;;;;;;;;;5036779;28;20033;-73
2023/09/07 12:32:03;;;;;;;8.98;6.80;;;;;;;;;;5036521;28;20100;-73
2023/09/07 12:34:28;;;;;;;10.30;7.85;;;;;;;;;;5033154;28;20037;-73
2023/09/07 12:36:54;;;;;;;10.98;7.45;;;;;;;;;;5032758;28;20028;-75
2023/09/07 12:39:20;;;;;;;11.27;8.23;;;;;;;;;;5033980;28;20075;-72
2023/09/07 12:41:46;;;;;;;15.10;9.27;;;;;;;;;;5033078;28;20065;-72
2023/09/07 12:44:12;;;;;;;11.00;8.15;;;;;;;;;;5032535;28;20062;-71
2023/09/07 12:46:38;;;;;;;17.50;9.27;;;;;;;;;;5034041;28;20109;-74
2023/09/07 12:49:05;;;;;;;11.15;8.18;;;;;;;;;;5033995;28;20034;-74
2023/09/07 12:51:31;;;;;;;17.02;9.20;;;;;;;;;;5033944;28;20017;-73
2023/09/07 12:53:57;;;;;;;15.32;9.27;;;;;;;;;;5033904;28;20041;-71
2023/09/07 12:56:23;;;;;;;17.08;10.35;;;;;;;;;;5034285;28;20025;-72
2023/09/07 12:58:52;;;;;;;19.50;8.77;;;;;;;;;;5032498;28;20033;-72
2023/09/07 13:01:18;;;;;;;13.93;9.82;;;;;;;;;;5033613;28;20616;-73
2023/09/07 13:03:45;;;;;;;14.75;7.70;;;;;;;;;;5034114;28;20030;-75
2023/09/07 13:06:11;;;;;;;13.18;8.93;;;;;;;;;;5033940;28;20025;-74
2023/09/07 13:08:37;;;;;;;13.32;8.70;;;;;;;;;;5034173;28;20419;-74
2023/09/07 13:11:03;;;;;;;13.30;7.57;;;;;;;;;;5033960;28;20025;-73
2023/09/07 13:13:31;;;;;;;12.73;9.05;;;;;;;;;;5035164;28;20499;-73
2023/09/07 13:15:56;;;;;;;14.90;8.82;;;;;;;;;;5029363;28;20108;-74
2023/09/07 13:18:27;;;;;;;13.18;8.65;;;;;;;;;;5029511;28;20471;-74
2023/09/07 13:20:59;;;;;;;11.68;8.23;;;;;;;;;;5031961;28;20033;-73
2023/09/07 13:23:29;;;;;;;10.43;8.02;;;;;;;;;;5033808;28;20481;-72
2023/09/07 13:26:00;;;;;;;12.38;8.65;;;;;;;;;;5033200;28;20120;-74
2023/09/07 13:28:26;;;;;;;11.20;7.80;;;;;;;;;;5025473;28;20095;-75
2023/09/07 13:30:52;;;;;;;11.63;8.52;;;;;;;;;;4998851;28;20025;-75
2023/09/07 13:33:18;;;;;;;10.07;6.95;;;;;;;;;;5033200;28;20037;-77
2023/09/07 13:35:45;;;;;;;10.77;7.70;;;;;;;;;;5032800;28;20036;-74
2023/09/07 13:38:12;;;;;;;11.50;7.55;;;;;;;;;;5033179;28;20116;-75
2023/09/07 13:40:39;;;;;;;13.68;9.18;;;;;;;;;;5031491;28;20475;-76
2023/09/07 13:43:05;;;;;;;13.10;9.00;;;;;;;;;;5032900;28;20480;-74
2023/09/07 13:45:31;;;;;;;11.95;9.23;;;;;;;;;;5031347;28;20035;-75
2023/09/07 13:47:57;;;;;;;14.98;9.45;;;;;;;;;;5033507;28;20395;-75
2023/09/07 13:50:23;;;;;;;10.95;8.55;;;;;;;;;;5033509;28;20048;-74
2023/09/07 13:52:49;;;;;;;13.25;8.82;;;;;;;;;;5032454;28;20033;-74
2023/09/07 13:55:16;;;;;;;15.82;9.02;;;;;;;;;;5031116;28;20415;-74
2023/09/07 13:57:42;;;;;;;13.00;10.25;;;;;;;;;;5032673;28;20033;-74
2023/09/07 14:00:09;;;;;;;12.60;9.98;;;;;;;;;;5032946;28;20032;-74
2023/09/07 14:02:35;;;;;;;13.50;9.32;;;;;;;;;;5032204;28;20053;-74
2023/09/07 14:05:01;;;;;;;13.88;8.93;;;;;;;;;;5031883;28;20118;-72
2023/09/07 14:07:27;;;;;;;11.68;8.98;;;;;;;;;;5032533;28;20029;-74
2023/09/07 14:09:54;;;;;;;11.27;9.48;;;;;;;;;;5032323;28;20074;-74
2023/09/07 14:12:21;;;;;;;13.15;9.40;;;;;;;;;;5032424;28;20076;-74
2023/09/07 14:14:48;;;;;;;11.88;9.00;;;;;;;;;;5025542;28;20036;-73
2023/09/07 14:17:14;;;;;;;11.52;8.70;;;;;;;;;;5032026;28;20491;-73
2023/09/07 14:19:40;;;;;;;13.20;9.15;;;;;;;;;;5032699;28;20097;-74
2023/09/07 14:22:06;;;;;;;15.27;8.90;;;;;;;;;;5030718;28;20041;-72
2023/09/07 14:24:32;;;;;;;11.32;8.02;;;;;;;;;;5032550;28;20462;-73
2023/09/07 14:26:58;;;;;;;10.70;7.25;;;;;;;;;;5032505;28;20033;-72
2023/09/07 14:29:23;;;;;;;12.90;7.53;;;;;;;;;;5032090;28;20163;-73
2023/09/07 14:31:50;;;;;;;12.80;7.57;;;;;;;;;;5014659;28;20034;-73
2023/09/07 14:34:15;;;;;;;9.85;6.35;;;;;;;;;;5030389;28;20087;-74
2023/09/07 14:36:44;;;;;;;19.52;7.70;;;;;;;;;;5031922;28;20441;-74